sensor_id;sensor_type;location;lat;lon;timestamp;P1;durP1;ratioP1;P2;durP2;ratioP2
67979;SDS011;54760;47.490;19.030;2022-12-17T00:01:00;48.90;;;23.12;;
67979;SDS011;54760;47.490;19.030;2022-12-17T00:03:45;54.28;;;24.42;;
67979;SDS011;54760;47.490;19.030;2022-12-17T00:06:29;52.42;;;25.25;;
67979;SDS011;54760;47.490;19.030;2022-12-17T00:09:13;55.12;;;25.30;;
67979;SDS011;54760;47.490;19.030;2022-12-17T00:11:57;56.83;;;26.77;;
67979;SDS011;54760;47.490;19.030;2022-12-17T00:14:41;56.00;;;27.13;;
67979;SDS011;54760;47.490;19.030;2022-12-17T00:17:25;60.08;;;25.90;;
67979;SDS011;54760;47.490;19.030;2022-12-17T00:20:09;51.97;;;25.10;;
67979;SDS011;54760;47.490;19.030;2022-12-17T00:22:57;52.17;;;25.12;;
67979;SDS011;54760;47.490;19.030;2022-12-17T00:25:52;53.83;;;26.08;;
67979;SDS011;54760;47.490;19.030;2022-12-17T00:28:37;52.40;;;25.08;;
67979;SDS011;54760;47.490;19.030;2022-12-17T00:31:23;41.70;;;20.12;;
67979;SDS011;54760;47.490;19.030;2022-12-17T00:34:09;53.25;;;25.02;;
67979;SDS011;54760;47.490;19.030;2022-12-17T00:36:53;56.50;;;25.88;;
67979;SDS011;54760;47.490;19.030;2022-12-17T00:39:37;48.08;;;21.48;;
67979;SDS011;54760;47.490;19.030;2022-12-17T00:42:21;32.97;;;16.67;;
67979;SDS011;54760;47.490;19.030;2022-12-17T00:45:05;53.22;;;22.75;;
67979;SDS011;54760;47.490;19.030;2022-12-17T00:47:49;58.87;;;26.20;;
67979;SDS011;54760;47.490;19.030;2022-12-17T00:50:33;56.63;;;25.55;;
67979;SDS011;54760;47.490;19.030;2022-12-17T00:53:17;49.63;;;24.67;;
67979;SDS011;54760;47.490;19.030;2022-12-17T00:56:01;57.05;;;26.92;;
67979;SDS011;54760;47.490;19.030;2022-12-17T00:58:46;47.40;;;23.52;;
67979;SDS011;54760;47.490;19.030;2022-12-17T01:01:30;58.65;;;27.50;;
67979;SDS011;54760;47.490;19.030;2022-12-17T01:04:14;60.33;;;26.37;;
67979;SDS011;54760;47.490;19.030;2022-12-17T01:06:58;58.28;;;26.45;;
67979;SDS011;54760;47.490;19.030;2022-12-17T01:09:42;60.12;;;27.15;;
67979;SDS011;54760;47.490;19.030;2022-12-17T01:12:26;67.53;;;28.95;;
67979;SDS011;54760;47.490;19.030;2022-12-17T01:15:10;60.33;;;29.40;;
67979;SDS011;54760;47.490;19.030;2022-12-17T01:17:55;61.10;;;28.67;;
67979;SDS011;54760;47.490;19.030;2022-12-17T01:20:39;59.67;;;28.33;;
67979;SDS011;54760;47.490;19.030;2022-12-17T01:23:42;60.75;;;28.92;;
67979;SDS011;54760;47.490;19.030;2022-12-17T01:26:28;62.45;;;27.67;;
67979;SDS011;54760;47.490;19.030;2022-12-17T01:29:12;66.53;;;28.62;;
67979;SDS011;54760;47.490;19.030;2022-12-17T01:31:56;54.97;;;27.33;;
67979;SDS011;54760;47.490;19.030;2022-12-17T01:34:40;59.45;;;28.52;;
67979;SDS011;54760;47.490;19.030;2022-12-17T01:37:24;57.25;;;28.87;;
67979;SDS011;54760;47.490;19.030;2022-12-17T01:40:08;57.47;;;26.92;;
67979;SDS011;54760;47.490;19.030;2022-12-17T01:42:53;56.58;;;26.92;;
67979;SDS011;54760;47.490;19.030;2022-12-17T01:45:38;56.72;;;26.75;;
67979;SDS011;54760;47.490;19.030;2022-12-17T01:48:30;61.63;;;27.05;;
67979;SDS011;54760;47.490;19.030;2022-12-17T01:51:19;54.22;;;27.17;;
67979;SDS011;54760;47.490;19.030;2022-12-17T01:54:03;55.67;;;26.33;;
67979;SDS011;54760;47.490;19.030;2022-12-17T01:56:47;49.75;;;25.33;;
67979;SDS011;54760;47.490;19.030;2022-12-17T01:59:37;49.75;;;24.73;;
67979;SDS011;54760;47.490;19.030;2022-12-17T02:02:27;52.78;;;24.67;;
67979;SDS011;54760;47.490;19.030;2022-12-17T02:05:11;44.78;;;23.30;;
67979;SDS011;54760;47.490;19.030;2022-12-17T02:08:58;47.03;;;24.02;;
67979;SDS011;54760;47.490;19.030;2022-12-17T02:11:15;46.33;;;23.40;;
67979;SDS011;54760;47.490;19.030;2022-12-17T02:17:12;54.88;;;25.20;;
67979;SDS011;54760;47.490;19.030;2022-12-17T02:20:17;49.25;;;24.83;;
67979;SDS011;54760;47.490;19.030;2022-12-17T02:29:26;51.45;;;24.00;;
67979;SDS011;54760;47.490;19.030;2022-12-17T02:32:12;52.62;;;24.08;;
67979;SDS011;54760;47.490;19.030;2022-12-17T02:35:01;50.80;;;25.42;;
67979;SDS011;54760;47.490;19.030;2022-12-17T02:37:49;50.12;;;25.48;;
67979;SDS011;54760;47.490;19.030;2022-12-17T02:40:34;52.60;;;24.60;;
67979;SDS011;54760;47.490;19.030;2022-12-17T02:43:20;51.47;;;25.20;;
67979;SDS011;54760;47.490;19.030;2022-12-17T02:46:07;54.20;;;24.45;;
67979;SDS011;54760;47.490;19.030;2022-12-17T02:48:52;54.47;;;26.42;;
67979;SDS011;54760;47.490;19.030;2022-12-17T02:51:35;53.55;;;26.80;;
67979;SDS011;54760;47.490;19.030;2022-12-17T02:54:19;51.20;;;23.87;;
67979;SDS011;54760;47.490;19.030;2022-12-17T02:57:14;59.92;;;27.45;;
67979;SDS011;54760;47.490;19.030;2022-12-17T02:59:58;55.08;;;27.70;;
67979;SDS011;54760;47.490;19.030;2022-12-17T03:02:42;52.60;;;26.02;;
67979;SDS011;54760;47.490;19.030;2022-12-17T03:05:26;54.90;;;27.30;;
67979;SDS011;54760;47.490;19.030;2022-12-17T03:08:10;54.97;;;26.33;;
67979;SDS011;54760;47.490;19.030;2022-12-17T03:10:54;59.17;;;26.85;;
67979;SDS011;54760;47.490;19.030;2022-12-17T03:13:38;53.20;;;25.70;;
67979;SDS011;54760;47.490;19.030;2022-12-17T03:16:21;51.72;;;25.65;;
67979;SDS011;54760;47.490;19.030;2022-12-17T03:19:05;50.28;;;24.90;;
67979;SDS011;54760;47.490;19.030;2022-12-17T03:21:51;47.30;;;23.65;;
67979;SDS011;54760;47.490;19.030;2022-12-17T03:24:35;48.83;;;23.60;;
67979;SDS011;54760;47.490;19.030;2022-12-17T03:27:19;52.22;;;25.12;;
67979;SDS011;54760;47.490;19.030;2022-12-17T03:30:03;47.50;;;21.83;;
67979;SDS011;54760;47.490;19.030;2022-12-17T03:32:48;45.90;;;23.52;;
67979;SDS011;54760;47.490;19.030;2022-12-17T03:35:32;48.53;;;24.65;;
67979;SDS011;54760;47.490;19.030;2022-12-17T03:38:16;50.05;;;23.73;;
67979;SDS011;54760;47.490;19.030;2022-12-17T03:41:00;49.65;;;25.02;;
67979;SDS011;54760;47.490;19.030;2022-12-17T03:43:44;48.83;;;23.05;;
67979;SDS011;54760;47.490;19.030;2022-12-17T03:46:28;47.92;;;23.70;;
67979;SDS011;54760;47.490;19.030;2022-12-17T03:49:12;44.13;;;22.35;;
67979;SDS011;54760;47.490;19.030;2022-12-17T03:51:56;46.95;;;23.30;;
67979;SDS011;54760;47.490;19.030;2022-12-17T03:54:40;46.13;;;23.33;;
67979;SDS011;54760;47.490;19.030;2022-12-17T03:57:24;47.05;;;22.17;;
67979;SDS011;54760;47.490;19.030;2022-12-17T04:00:08;45.75;;;22.83;;
67979;SDS011;54760;47.490;19.030;2022-12-17T04:02:53;41.65;;;21.45;;
67979;SDS011;54760;47.490;19.030;2022-12-17T04:05:37;46.85;;;21.58;;
67979;SDS011;54760;47.490;19.030;2022-12-17T04:08:21;45.40;;;22.33;;
67979;SDS011;54760;47.490;19.030;2022-12-17T04:11:05;50.20;;;23.17;;
67979;SDS011;54760;47.490;19.030;2022-12-17T04:13:49;49.80;;;23.55;;
67979;SDS011;54760;47.490;19.030;2022-12-17T04:16:33;48.90;;;23.40;;
67979;SDS011;54760;47.490;19.030;2022-12-17T04:19:17;48.78;;;22.48;;
67979;SDS011;54760;47.490;19.030;2022-12-17T04:22:01;43.22;;;21.37;;
67979;SDS011;54760;47.490;19.030;2022-12-17T04:24:45;50.20;;;23.23;;
67979;SDS011;54760;47.490;19.030;2022-12-17T04:27:29;43.92;;;21.70;;
67979;SDS011;54760;47.490;19.030;2022-12-17T04:30:13;52.00;;;23.30;;
67979;SDS011;54760;47.490;19.030;2022-12-17T04:32:57;45.97;;;22.75;;
67979;SDS011;54760;47.490;19.030;2022-12-17T04:35:41;37.85;;;19.95;;
67979;SDS011;54760;47.490;19.030;2022-12-17T04:38:27;42.28;;;20.27;;
67979;SDS011;54760;47.490;19.030;2022-12-17T04:41:11;42.58;;;19.60;;
67979;SDS011;54760;47.490;19.030;2022-12-17T04:43:55;44.40;;;21.80;;
67979;SDS011;54760;47.490;19.030;2022-12-17T04:46:39;45.67;;;21.48;;
67979;SDS011;54760;47.490;19.030;2022-12-17T04:49:22;44.15;;;19.73;;
67979;SDS011;54760;47.490;19.030;2022-12-17T04:52:07;47.90;;;22.40;;
67979;SDS011;54760;47.490;19.030;2022-12-17T04:54:51;51.78;;;21.05;;
67979;SDS011;54760;47.490;19.030;2022-12-17T04:57:35;51.50;;;23.50;;
67979;SDS011;54760;47.490;19.030;2022-12-17T05:00:19;44.63;;;21.25;;
67979;SDS011;54760;47.490;19.030;2022-12-17T05:03:10;52.72;;;21.87;;
67979;SDS011;54760;47.490;19.030;2022-12-17T05:05:56;43.75;;;21.25;;
67979;SDS011;54760;47.490;19.030;2022-12-17T05:08:40;47.97;;;22.15;;
67979;SDS011;54760;47.490;19.030;2022-12-17T05:11:24;43.45;;;21.50;;
67979;SDS011;54760;47.490;19.030;2022-12-17T05:14:08;43.42;;;20.80;;
67979;SDS011;54760;47.490;19.030;2022-12-17T05:16:53;42.10;;;21.50;;
67979;SDS011;54760;47.490;19.030;2022-12-17T05:19:37;45.20;;;20.23;;
67979;SDS011;54760;47.490;19.030;2022-12-17T05:22:21;42.15;;;20.67;;
67979;SDS011;54760;47.490;19.030;2022-12-17T05:25:05;33.03;;;16.10;;
67979;SDS011;54760;47.490;19.030;2022-12-17T05:27:49;40.12;;;19.62;;
67979;SDS011;54760;47.490;19.030;2022-12-17T05:30:33;41.72;;;17.85;;
67979;SDS011;54760;47.490;19.030;2022-12-17T05:33:17;32.28;;;16.95;;
67979;SDS011;54760;47.490;19.030;2022-12-17T05:36:01;38.85;;;19.50;;
67979;SDS011;54760;47.490;19.030;2022-12-17T05:38:46;42.50;;;18.83;;
67979;SDS011;54760;47.490;19.030;2022-12-17T05:41:31;42.35;;;17.95;;
67979;SDS011;54760;47.490;19.030;2022-12-17T05:44:15;40.88;;;20.27;;
67979;SDS011;54760;47.490;19.030;2022-12-17T05:46:59;32.70;;;15.80;;
67979;SDS011;54760;47.490;19.030;2022-12-17T05:49:43;43.65;;;19.73;;
67979;SDS011;54760;47.490;19.030;2022-12-17T05:52:27;42.05;;;18.62;;
67979;SDS011;54760;47.490;19.030;2022-12-17T05:55:11;41.53;;;19.80;;
67979;SDS011;54760;47.490;19.030;2022-12-17T05:58:02;40.70;;;19.37;;
67979;SDS011;54760;47.490;19.030;2022-12-17T06:00:48;38.80;;;18.55;;
67979;SDS011;54760;47.490;19.030;2022-12-17T06:03:32;40.25;;;20.60;;
67979;SDS011;54760;47.490;19.030;2022-12-17T06:06:16;44.55;;;19.27;;
67979;SDS011;54760;47.490;19.030;2022-12-17T06:09:00;40.92;;;19.83;;
67979;SDS011;54760;47.490;19.030;2022-12-17T06:11:44;42.58;;;19.87;;
67979;SDS011;54760;47.490;19.030;2022-12-17T06:14:28;38.92;;;18.23;;
67979;SDS011;54760;47.490;19.030;2022-12-17T06:17:12;42.83;;;18.52;;
67979;SDS011;54760;47.490;19.030;2022-12-17T06:19:56;40.22;;;20.05;;
67979;SDS011;54760;47.490;19.030;2022-12-17T06:22:40;42.83;;;20.73;;
67979;SDS011;54760;47.490;19.030;2022-12-17T06:25:24;38.00;;;19.62;;
67979;SDS011;54760;47.490;19.030;2022-12-17T06:28:08;43.53;;;19.98;;
67979;SDS011;54760;47.490;19.030;2022-12-17T06:30:53;39.63;;;18.77;;
67979;SDS011;54760;47.490;19.030;2022-12-17T06:33:38;41.03;;;19.50;;
67979;SDS011;54760;47.490;19.030;2022-12-17T06:36:23;40.75;;;18.83;;
67979;SDS011;54760;47.490;19.030;2022-12-17T06:39:07;36.03;;;18.12;;
67979;SDS011;54760;47.490;19.030;2022-12-17T06:41:51;38.08;;;19.23;;
67979;SDS011;54760;47.490;19.030;2022-12-17T06:44:35;42.62;;;19.92;;
67979;SDS011;54760;47.490;19.030;2022-12-17T06:47:19;37.72;;;19.15;;
67979;SDS011;54760;47.490;19.030;2022-12-17T06:50:04;43.63;;;19.45;;
67979;SDS011;54760;47.490;19.030;2022-12-17T06:53:01;43.80;;;20.40;;
67979;SDS011;54760;47.490;19.030;2022-12-17T06:55:46;36.78;;;19.30;;
67979;SDS011;54760;47.490;19.030;2022-12-17T06:58:30;42.78;;;20.25;;
67979;SDS011;54760;47.490;19.030;2022-12-17T07:01:14;38.83;;;19.12;;
67979;SDS011;54760;47.490;19.030;2022-12-17T07:03:58;43.15;;;19.65;;
67979;SDS011;54760;47.490;19.030;2022-12-17T07:06:42;41.88;;;19.40;;
67979;SDS011;54760;47.490;19.030;2022-12-17T07:09:26;40.42;;;19.30;;
67979;SDS011;54760;47.490;19.030;2022-12-17T07:12:11;43.85;;;21.20;;
67979;SDS011;54760;47.490;19.030;2022-12-17T07:14:56;41.10;;;19.67;;
67979;SDS011;54760;47.490;19.030;2022-12-17T07:17:40;39.67;;;18.95;;
67979;SDS011;54760;47.490;19.030;2022-12-17T07:20:25;39.67;;;18.85;;
67979;SDS011;54760;47.490;19.030;2022-12-17T07:23:09;38.03;;;18.67;;
67979;SDS011;54760;47.490;19.030;2022-12-17T07:25:52;45.03;;;20.12;;
67979;SDS011;54760;47.490;19.030;2022-12-17T07:28:36;45.75;;;20.90;;
67979;SDS011;54760;47.490;19.030;2022-12-17T07:31:20;38.70;;;19.27;;
67979;SDS011;54760;47.490;19.030;2022-12-17T07:34:04;34.08;;;16.05;;
67979;SDS011;54760;47.490;19.030;2022-12-17T07:36:48;37.90;;;17.75;;
67979;SDS011;54760;47.490;19.030;2022-12-17T07:39:32;36.78;;;17.98;;
67979;SDS011;54760;47.490;19.030;2022-12-17T07:42:16;34.10;;;15.85;;
67979;SDS011;54760;47.490;19.030;2022-12-17T07:45:01;35.33;;;17.58;;
67979;SDS011;54760;47.490;19.030;2022-12-17T07:47:54;40.05;;;18.75;;
67979;SDS011;54760;47.490;19.030;2022-12-17T07:50:38;38.35;;;16.48;;
67979;SDS011;54760;47.490;19.030;2022-12-17T07:53:22;38.92;;;18.60;;
67979;SDS011;54760;47.490;19.030;2022-12-17T07:56:06;34.35;;;17.48;;
67979;SDS011;54760;47.490;19.030;2022-12-17T07:58:50;40.92;;;19.62;;
67979;SDS011;54760;47.490;19.030;2022-12-17T08:01:34;42.22;;;19.65;;
67979;SDS011;54760;47.490;19.030;2022-12-17T08:04:18;38.92;;;18.92;;
67979;SDS011;54760;47.490;19.030;2022-12-17T08:07:02;24.80;;;13.62;;
67979;SDS011;54760;47.490;19.030;2022-12-17T08:09:46;38.33;;;18.20;;
67979;SDS011;54760;47.490;19.030;2022-12-17T08:12:30;42.53;;;19.00;;
67979;SDS011;54760;47.490;19.030;2022-12-17T08:15:14;43.87;;;19.67;;
67979;SDS011;54760;47.490;19.030;2022-12-17T08:17:59;44.53;;;19.42;;
67979;SDS011;54760;47.490;19.030;2022-12-17T08:20:45;34.78;;;14.65;;
67979;SDS011;54760;47.490;19.030;2022-12-17T08:23:29;42.00;;;19.33;;
67979;SDS011;54760;47.490;19.030;2022-12-17T08:26:13;35.75;;;17.95;;
67979;SDS011;54760;47.490;19.030;2022-12-17T08:28:57;40.38;;;19.62;;
67979;SDS011;54760;47.490;19.030;2022-12-17T08:31:41;45.38;;;20.73;;
67979;SDS011;54760;47.490;19.030;2022-12-17T08:34:25;43.53;;;20.50;;
67979;SDS011;54760;47.490;19.030;2022-12-17T08:37:09;41.90;;;19.30;;
67979;SDS011;54760;47.490;19.030;2022-12-17T08:39:53;44.85;;;19.58;;
67979;SDS011;54760;47.490;19.030;2022-12-17T08:42:37;46.45;;;20.15;;
67979;SDS011;54760;47.490;19.030;2022-12-17T08:45:21;36.92;;;17.30;;
67979;SDS011;54760;47.490;19.030;2022-12-17T08:48:05;38.50;;;18.62;;
67979;SDS011;54760;47.490;19.030;2022-12-17T08:50:51;44.08;;;22.00;;
67979;SDS011;54760;47.490;19.030;2022-12-17T08:53:35;37.22;;;17.83;;
67979;SDS011;54760;47.490;19.030;2022-12-17T08:56:19;43.55;;;20.33;;
67979;SDS011;54760;47.490;19.030;2022-12-17T08:59:03;48.63;;;22.67;;
67979;SDS011;54760;47.490;19.030;2022-12-17T09:01:47;48.80;;;21.12;;
67979;SDS011;54760;47.490;19.030;2022-12-17T09:04:31;51.33;;;22.67;;
67979;SDS011;54760;47.490;19.030;2022-12-17T09:07:15;46.35;;;21.67;;
67979;SDS011;54760;47.490;19.030;2022-12-17T09:09:59;47.70;;;21.05;;
67979;SDS011;54760;47.490;19.030;2022-12-17T09:12:43;52.95;;;22.85;;
67979;SDS011;54760;47.490;19.030;2022-12-17T09:15:27;51.25;;;22.83;;
67979;SDS011;54760;47.490;19.030;2022-12-17T09:18:11;50.67;;;22.67;;
67979;SDS011;54760;47.490;19.030;2022-12-17T09:20:55;44.40;;;20.60;;
67979;SDS011;54760;47.490;19.030;2022-12-17T09:23:39;49.53;;;23.15;;
67979;SDS011;54760;47.490;19.030;2022-12-17T09:26:23;53.63;;;22.55;;
67979;SDS011;54760;47.490;19.030;2022-12-17T09:29:07;45.70;;;21.73;;
67979;SDS011;54760;47.490;19.030;2022-12-17T09:31:51;43.83;;;21.33;;
67979;SDS011;54760;47.490;19.030;2022-12-17T09:34:35;49.72;;;22.90;;
67979;SDS011;54760;47.490;19.030;2022-12-17T09:37:20;45.12;;;21.12;;
67979;SDS011;54760;47.490;19.030;2022-12-17T09:40:04;32.85;;;16.60;;
67979;SDS011;54760;47.490;19.030;2022-12-17T09:45:58;52.10;;;22.80;;
67979;SDS011;54760;47.490;19.030;2022-12-17T09:51:47;45.78;;;20.80;;
67979;SDS011;54760;47.490;19.030;2022-12-17T09:54:45;51.10;;;22.67;;
67979;SDS011;54760;47.490;19.030;2022-12-17T09:57:33;49.92;;;22.37;;
67979;SDS011;54760;47.490;19.030;2022-12-17T10:00:20;48.17;;;22.33;;
67979;SDS011;54760;47.490;19.030;2022-12-17T10:03:17;31.87;;;16.58;;
67979;SDS011;54760;47.490;19.030;2022-12-17T10:06:08;44.10;;;19.30;;
67979;SDS011;54760;47.490;19.030;2022-12-17T10:08:59;36.25;;;16.98;;
67979;SDS011;54760;47.490;19.030;2022-12-17T10:11:44;40.00;;;19.20;;
67979;SDS011;54760;47.490;19.030;2022-12-17T10:14:28;36.88;;;17.65;;
67979;SDS011;54760;47.490;19.030;2022-12-17T10:17:22;48.40;;;20.42;;
67979;SDS011;54760;47.490;19.030;2022-12-17T10:23:06;51.90;;;23.10;;
67979;SDS011;54760;47.490;19.030;2022-12-17T10:25:52;38.10;;;19.02;;
67979;SDS011;54760;47.490;19.030;2022-12-17T10:28:37;45.97;;;20.27;;
67979;SDS011;54760;47.490;19.030;2022-12-17T10:31:21;46.53;;;21.85;;
67979;SDS011;54760;47.490;19.030;2022-12-17T10:34:13;48.38;;;20.27;;
67979;SDS011;54760;47.490;19.030;2022-12-17T10:36:59;48.38;;;22.08;;
67979;SDS011;54760;47.490;19.030;2022-12-17T10:39:52;28.77;;;14.85;;
67979;SDS011;54760;47.490;19.030;2022-12-17T10:42:38;44.85;;;19.35;;
67979;SDS011;54760;47.490;19.030;2022-12-17T10:48:21;41.83;;;20.02;;
67979;SDS011;54760;47.490;19.030;2022-12-17T10:51:13;34.22;;;17.55;;
67979;SDS011;54760;47.490;19.030;2022-12-17T10:54:09;36.97;;;17.48;;
67979;SDS011;54760;47.490;19.030;2022-12-17T10:59:43;39.10;;;18.08;;
67979;SDS011;54760;47.490;19.030;2022-12-17T11:02:28;48.28;;;21.15;;
67979;SDS011;54760;47.490;19.030;2022-12-17T11:05:14;44.78;;;21.10;;
67979;SDS011;54760;47.490;19.030;2022-12-17T11:08:05;40.65;;;18.00;;
67979;SDS011;54760;47.490;19.030;2022-12-17T11:10:50;37.97;;;17.35;;
67979;SDS011;54760;47.490;19.030;2022-12-17T11:13:35;34.97;;;16.17;;
67979;SDS011;54760;47.490;19.030;2022-12-17T11:16:25;42.15;;;18.95;;
67979;SDS011;54760;47.490;19.030;2022-12-17T11:21:57;37.63;;;18.25;;
67979;SDS011;54760;47.490;19.030;2022-12-17T11:25:01;45.70;;;20.33;;
67979;SDS011;54760;47.490;19.030;2022-12-17T11:27:49;39.78;;;21.23;;
67979;SDS011;54760;47.490;19.030;2022-12-17T11:30:45;39.30;;;20.42;;
67979;SDS011;54760;47.490;19.030;2022-12-17T11:34:18;49.05;;;21.73;;
67979;SDS011;54760;47.490;19.030;2022-12-17T11:37:06;49.13;;;21.83;;
67979;SDS011;54760;47.490;19.030;2022-12-17T11:39:59;47.90;;;21.30;;
67979;SDS011;54760;47.490;19.030;2022-12-17T11:43:08;45.53;;;20.97;;
67979;SDS011;54760;47.490;19.030;2022-12-17T11:46:04;42.95;;;19.37;;
67979;SDS011;54760;47.490;19.030;2022-12-17T11:52:07;45.03;;;19.98;;
67979;SDS011;54760;47.490;19.030;2022-12-17T11:55:11;44.42;;;19.92;;
67979;SDS011;54760;47.490;19.030;2022-12-17T11:58:04;39.15;;;17.05;;
67979;SDS011;54760;47.490;19.030;2022-12-17T12:10:35;37.58;;;15.80;;
67979;SDS011;54760;47.490;19.030;2022-12-17T12:13:34;41.17;;;19.12;;
67979;SDS011;54760;47.490;19.030;2022-12-17T12:19:48;36.55;;;17.00;;
67979;SDS011;54760;47.490;19.030;2022-12-17T12:28:39;44.53;;;18.83;;
67979;SDS011;54760;47.490;19.030;2022-12-17T12:31:37;49.30;;;22.00;;
67979;SDS011;54760;47.490;19.030;2022-12-17T12:34:26;46.90;;;21.60;;
67979;SDS011;54760;47.490;19.030;2022-12-17T12:37:18;43.83;;;21.55;;
67979;SDS011;54760;47.490;19.030;2022-12-17T12:46:14;46.13;;;21.57;;
67979;SDS011;54760;47.490;19.030;2022-12-17T12:52:07;41.08;;;19.33;;
67979;SDS011;54760;47.490;19.030;2022-12-17T12:54:54;43.90;;;20.35;;
67979;SDS011;54760;47.490;19.030;2022-12-17T12:57:42;49.90;;;22.13;;
67979;SDS011;54760;47.490;19.030;2022-12-17T13:06:36;28.40;;;17.12;;
67979;SDS011;54760;47.490;19.030;2022-12-17T13:09:50;39.17;;;17.70;;
67979;SDS011;54760;47.490;19.030;2022-12-17T13:17:01;48.50;;;21.75;;
67979;SDS011;54760;47.490;19.030;2022-12-17T13:19:38;49.97;;;22.60;;
67979;SDS011;54760;47.490;19.030;2022-12-17T13:24:44;36.45;;;18.10;;
67979;SDS011;54760;47.490;19.030;2022-12-17T13:27:26;46.20;;;21.00;;
67979;SDS011;54760;47.490;19.030;2022-12-17T13:29:56;38.15;;;18.10;;
67979;SDS011;54760;47.490;19.030;2022-12-17T13:32:45;46.25;;;22.00;;
67979;SDS011;54760;47.490;19.030;2022-12-17T13:41:12;46.70;;;19.45;;
67979;SDS011;54760;47.490;19.030;2022-12-17T13:43:49;42.62;;;19.52;;
67979;SDS011;54760;47.490;19.030;2022-12-17T13:46:22;46.58;;;19.48;;
67979;SDS011;54760;47.490;19.030;2022-12-17T13:49:10;44.72;;;20.40;;
67979;SDS011;54760;47.490;19.030;2022-12-17T13:51:44;42.05;;;17.80;;
67979;SDS011;54760;47.490;19.030;2022-12-17T13:54:16;45.28;;;19.73;;
67979;SDS011;54760;47.490;19.030;2022-12-17T13:56:43;37.63;;;19.08;;
67979;SDS011;54760;47.490;19.030;2022-12-17T13:59:15;42.65;;;19.40;;
67979;SDS011;54760;47.490;19.030;2022-12-17T14:01:43;48.83;;;21.17;;
67979;SDS011;54760;47.490;19.030;2022-12-17T14:04:18;48.53;;;20.70;;
67979;SDS011;54760;47.490;19.030;2022-12-17T14:06:47;50.22;;;21.15;;
67979;SDS011;54760;47.490;19.030;2022-12-17T14:09:15;45.45;;;20.45;;
67979;SDS011;54760;47.490;19.030;2022-12-17T14:11:43;46.78;;;21.15;;
67979;SDS011;54760;47.490;19.030;2022-12-17T14:14:31;46.08;;;20.67;;
67979;SDS011;54760;47.490;19.030;2022-12-17T14:16:59;47.53;;;20.62;;
67979;SDS011;54760;47.490;19.030;2022-12-17T14:19:25;44.22;;;20.77;;
67979;SDS011;54760;47.490;19.030;2022-12-17T14:21:52;37.85;;;17.83;;
67979;SDS011;54760;47.490;19.030;2022-12-17T14:24:19;47.13;;;20.37;;
67979;SDS011;54760;47.490;19.030;2022-12-17T14:26:51;44.90;;;20.27;;
67979;SDS011;54760;47.490;19.030;2022-12-17T14:29:28;45.63;;;21.02;;
67979;SDS011;54760;47.490;19.030;2022-12-17T14:32:01;44.47;;;18.95;;
67979;SDS011;54760;47.490;19.030;2022-12-17T14:34:45;46.88;;;20.33;;
67979;SDS011;54760;47.490;19.030;2022-12-17T14:37:12;43.50;;;19.62;;
67979;SDS011;54760;47.490;19.030;2022-12-17T14:39:42;39.17;;;19.40;;
67979;SDS011;54760;47.490;19.030;2022-12-17T14:42:28;43.60;;;19.90;;
67979;SDS011;54760;47.490;19.030;2022-12-17T14:44:55;40.75;;;19.58;;
67979;SDS011;54760;47.490;19.030;2022-12-17T14:47:26;42.75;;;19.73;;
67979;SDS011;54760;47.490;19.030;2022-12-17T14:52:34;43.13;;;19.27;;
67979;SDS011;54760;47.490;19.030;2022-12-17T14:57:47;44.25;;;19.12;;
67979;SDS011;54760;47.490;19.030;2022-12-17T15:00:17;46.28;;;19.67;;
67979;SDS011;54760;47.490;19.030;2022-12-17T15:02:43;46.42;;;19.45;;
67979;SDS011;54760;47.490;19.030;2022-12-17T15:05:15;41.47;;;18.37;;
67979;SDS011;54760;47.490;19.030;2022-12-17T15:07:41;39.97;;;18.65;;
67979;SDS011;54760;47.490;19.030;2022-12-17T15:10:10;42.25;;;19.77;;
67979;SDS011;54760;47.490;19.030;2022-12-17T15:12:38;42.22;;;17.55;;
67979;SDS011;54760;47.490;19.030;2022-12-17T15:15:06;39.85;;;17.08;;
67979;SDS011;54760;47.490;19.030;2022-12-17T15:17:32;38.15;;;18.12;;
67979;SDS011;54760;47.490;19.030;2022-12-17T15:19:57;42.25;;;18.52;;
67979;SDS011;54760;47.490;19.030;2022-12-17T15:22:23;39.00;;;17.80;;
67979;SDS011;54760;47.490;19.030;2022-12-17T15:24:48;36.13;;;17.00;;
67979;SDS011;54760;47.490;19.030;2022-12-17T15:27:14;35.42;;;17.90;;
67979;SDS011;54760;47.490;19.030;2022-12-17T15:29:41;46.78;;;18.90;;
67979;SDS011;54760;47.490;19.030;2022-12-17T15:32:11;39.85;;;18.12;;
67979;SDS011;54760;47.490;19.030;2022-12-17T15:34:45;42.75;;;18.20;;
67979;SDS011;54760;47.490;19.030;2022-12-17T15:37:10;37.95;;;17.80;;
67979;SDS011;54760;47.490;19.030;2022-12-17T15:39:36;37.08;;;17.73;;
67979;SDS011;54760;47.490;19.030;2022-12-17T15:42:02;38.97;;;17.62;;
67979;SDS011;54760;47.490;19.030;2022-12-17T15:44:46;38.50;;;16.42;;
67979;SDS011;54760;47.490;19.030;2022-12-17T15:47:11;33.65;;;15.40;;
67979;SDS011;54760;47.490;19.030;2022-12-17T15:49:36;36.33;;;16.55;;
67979;SDS011;54760;47.490;19.030;2022-12-17T15:52:02;29.25;;;14.40;;
67979;SDS011;54760;47.490;19.030;2022-12-17T15:54:27;38.55;;;17.42;;
67979;SDS011;54760;47.490;19.030;2022-12-17T15:56:53;31.02;;;14.70;;
67979;SDS011;54760;47.490;19.030;2022-12-17T15:59:19;31.40;;;14.30;;
67979;SDS011;54760;47.490;19.030;2022-12-17T16:01:45;35.30;;;15.10;;
67979;SDS011;54760;47.490;19.030;2022-12-17T16:04:10;30.05;;;14.25;;
67979;SDS011;54760;47.490;19.030;2022-12-17T16:06:36;36.63;;;16.12;;
67979;SDS011;54760;47.490;19.030;2022-12-17T16:09:01;33.10;;;14.52;;
67979;SDS011;54760;47.490;19.030;2022-12-17T16:11:27;32.78;;;15.75;;
67979;SDS011;54760;47.490;19.030;2022-12-17T16:13:53;36.20;;;15.20;;
67979;SDS011;54760;47.490;19.030;2022-12-17T16:16:19;27.85;;;12.37;;
67979;SDS011;54760;47.490;19.030;2022-12-17T16:18:45;36.05;;;14.95;;
67979;SDS011;54760;47.490;19.030;2022-12-17T16:21:10;30.80;;;13.57;;
67979;SDS011;54760;47.490;19.030;2022-12-17T16:23:35;30.80;;;13.00;;
67979;SDS011;54760;47.490;19.030;2022-12-17T16:26:02;32.63;;;14.30;;
67979;SDS011;54760;47.490;19.030;2022-12-17T16:28:32;30.90;;;12.52;;
67979;SDS011;54760;47.490;19.030;2022-12-17T16:30:59;32.38;;;15.10;;
67979;SDS011;54760;47.490;19.030;2022-12-17T16:33:26;35.13;;;14.65;;
67979;SDS011;54760;47.490;19.030;2022-12-17T16:35:55;36.35;;;15.75;;
67979;SDS011;54760;47.490;19.030;2022-12-17T16:38:20;23.25;;;10.45;;
67979;SDS011;54760;47.490;19.030;2022-12-17T16:40:46;33.70;;;13.65;;
67979;SDS011;54760;47.490;19.030;2022-12-17T16:43:11;30.27;;;13.52;;
67979;SDS011;54760;47.490;19.030;2022-12-17T16:45:45;33.00;;;14.13;;
67979;SDS011;54760;47.490;19.030;2022-12-17T16:48:12;28.87;;;13.20;;
67979;SDS011;54760;47.490;19.030;2022-12-17T16:50:38;33.63;;;13.62;;
67979;SDS011;54760;47.490;19.030;2022-12-17T16:53:03;26.67;;;13.13;;
67979;SDS011;54760;47.490;19.030;2022-12-17T16:55:28;27.92;;;12.45;;
67979;SDS011;54760;47.490;19.030;2022-12-17T16:57:54;37.35;;;13.70;;